Time;durP1;ratioP1;P1;durP2;ratioP2;P2;SDS_P1;SDS_P2;PMS_P1;PMS_P2;Temp;Humidity;BMP_temperature;BMP_pressure;BME280_temperature;BME280_humidity;BME280_pressure;Samples;Min_cycle;Max_cycle;Signal;HPM_P1;HPM_P2
2023/08/28 00:00:33;;;;;;;7.63;1.80;;;14.10;99.90;;;;;;5051730;28;20037;-70
2023/08/28 00:02:58;;;;;;;2.47;1.73;;;14.10;99.90;;;;;;5034407;28;20508;-70
2023/08/28 00:05:24;;;;;;;4.03;2.05;;;14.10;99.90;;;;;;5034035;28;20080;-70
2023/08/28 00:07:50;;;;;;;2.55;1.58;;;14.10;99.90;;;;;;5034250;28;20076;-70
2023/08/28 00:10:15;;;;;;;3.75;1.67;;;14.10;99.90;;;;;;5051739;28;20045;-70
2023/08/28 00:12:42;;;;;;;4.43;1.80;;;13.80;99.90;;;;;;5034407;28;20041;-70
2023/08/28 00:15:08;;;;;;;5.32;1.55;;;13.90;99.90;;;;;;5033944;28;20041;-70
2023/08/28 00:17:34;;;;;;;3.85;1.80;;;13.70;99.90;;;;;;5017705;28;20098;-70
2023/08/28 00:19:59;;;;;;;3.28;1.88;;;14.10;99.90;;;;;;5033793;28;20036;-70
2023/08/28 00:22:25;;;;;;;5.53;1.92;;;14.10;99.90;;;;;;5051961;28;20047;-70
2023/08/28 00:24:51;;;;;;;3.53;1.63;;;13.70;99.90;;;;;;5051190;28;20032;-70
2023/08/28 00:27:16;;;;;;;4.57;2.13;;;14.00;99.90;;;;;;5051479;28;20377;-71
2023/08/28 00:29:42;;;;;;;3.35;1.80;;;13.80;99.90;;;;;;5051394;28;20496;-70
2023/08/28 00:32:07;;;;;;;4.18;1.67;;;14.00;99.90;;;;;;5051602;28;20132;-70
2023/08/28 00:34:33;;;;;;;2.90;1.58;;;13.80;99.90;;;;;;5051815;28;20041;-70
2023/08/28 00:36:59;;;;;;;4.80;1.85;;;14.00;99.90;;;;;;5033971;28;20118;-70
2023/08/28 00:39:24;;;;;;;3.85;1.90;;;13.80;99.90;;;;;;5051329;28;20037;-70
2023/08/28 00:41:50;;;;;;;2.92;1.63;;;13.90;99.90;;;;;;5033699;28;20558;-70
2023/08/28 00:44:15;;;;;;;3.75;1.80;;;13.80;99.90;;;;;;5051277;28;20075;-70
2023/08/28 00:46:41;;;;;;;2.10;1.50;;;13.80;99.90;;;;;;5033594;28;20052;-70
2023/08/28 00:49:08;;;;;;;3.13;1.50;;;13.80;99.90;;;;;;5033142;28;20098;-70
2023/08/28 00:51:34;;;;;;;4.18;1.67;;;14.10;99.90;;;;;;5033548;28;20493;-70
2023/08/28 00:54:03;;;;;;;3.42;1.70;;;13.80;99.90;;;;;;5013479;28;1084287;-70
2023/08/28 00:56:29;;;;;;;2.33;1.92;;;14.10;99.90;;;;;;5034057;28;20504;-70
2023/08/28 00:58:55;;;;;;;4.25;1.77;;;14.10;99.90;;;;;;5033887;28;20128;-70
2023/08/28 01:01:20;;;;;;;3.20;1.60;;;13.70;99.90;;;;;;5052310;28;20056;-70
2023/08/28 01:03:46;;;;;;;4.90;2.10;;;13.80;99.90;;;;;;5051967;28;20535;-70
2023/08/28 01:06:21;;;;;;;2.90;1.70;;;14.00;99.90;;;;;;5052022;28;20036;-70
2023/08/28 01:09:21;;;;;;;5.18;1.70;;;14.00;99.90;;;;;;5051574;28;20120;-70
2023/08/28 01:12:02;;;;;;;2.58;1.40;;;13.90;99.90;;;;;;5052127;28;20043;-70
2023/08/28 01:14:29;;;;;;;4.68;1.50;;;13.70;99.90;;;;;;5051876;28;20040;-70
2023/08/28 01:17:04;;;;;;;10.15;1.88;;;13.90;99.90;;;;;;5051900;28;20044;-70
2023/08/28 01:19:37;;;;;;;5.90;1.80;;;13.60;99.90;;;;;;5033811;28;20076;-70
2023/08/28 01:22:22;;;;;;;4.13;1.40;;;13.60;99.90;;;;;;5033808;28;20124;-70
2023/08/28 01:24:56;;;;;;;5.10;1.60;;;13.80;99.90;;;;;;5051639;28;20048;-70
2023/08/28 01:27:21;;;;;;;;;;;13.60;99.90;;;;;;5052089;28;20075;-70
2023/08/28 01:30:10;;;;;;;2.50;1.60;;;13.70;99.90;;;;;;5033388;28;20037;-70
2023/08/28 01:32:36;;;;;;;5.88;1.63;;;13.50;99.90;;;;;;5051853;28;20133;-70
2023/08/28 01:35:07;;;;;;;2.55;1.60;;;13.70;99.90;;;;;;5051753;28;20036;-70
2023/08/28 01:37:42;;;;;;;2.15;1.55;;;13.60;99.90;;;;;;5051296;28;20041;-70
2023/08/28 01:40:12;;;;;;;4.53;1.50;;;13.60;99.90;;;;;;5033685;28;20119;-70
2023/08/28 01:42:39;;;;;;;1.83;1.58;;;13.50;99.90;;;;;;5051503;28;20158;-70
2023/08/28 01:45:06;;;;;;;6.13;2.25;;;13.80;99.90;;;;;;5017279;28;20057;-70
2023/08/28 01:47:31;;;;;;;2.47;1.95;;;13.50;99.90;;;;;;5033747;28;20408;-70
2023/08/28 01:49:58;;;;;;;4.05;1.75;;;13.60;99.90;;;;;;5033367;28;20052;-70
2023/08/28 01:52:23;;;;;;;2.33;1.90;;;13.70;99.90;;;;;;5053816;28;20554;-69
2023/08/28 01:54:49;;;;;;;3.60;1.50;;;13.40;99.90;;;;;;5055385;28;20037;-70
2023/08/28 01:57:15;;;;;;;3.88;2.67;;;13.50;99.90;;;;;;5055522;28;20041;-70
2023/08/28 01:59:40;;;;;;;3.58;1.63;;;13.20;99.90;;;;;;5055574;28;20053;-70
2023/08/28 02:02:06;;;;;;;2.60;1.67;;;13.30;99.90;;;;;;5037400;28;20044;-70
2023/08/28 02:04:31;;;;;;;3.78;1.40;;;13.50;99.90;;;;;;5037155;28;20051;-70
2023/08/28 02:06:57;;;;;;;4.20;1.65;;;13.20;99.90;;;;;;5055115;28;20072;-70
2023/08/28 02:09:22;;;;;;;5.10;1.75;;;13.20;99.90;;;;;;5054858;28;20040;-70
2023/08/28 02:11:49;;;;;;;2.78;1.58;;;13.40;99.90;;;;;;5055212;28;20119;-70
2023/08/28 02:14:15;;;;;;;3.40;1.75;;;13.50;99.90;;;;;;5054942;28;20485;-70
2023/08/28 02:16:40;;;;;;;3.70;1.88;;;13.50;99.90;;;;;;5055205;28;20039;-69
2023/08/28 02:19:06;;;;;;;4.10;2.10;;;13.50;99.90;;;;;;5054990;28;20174;-69
2023/08/28 02:21:32;;;;;;;2.10;1.60;;;13.20;99.90;;;;;;5055119;28;20045;-69
2023/08/28 02:23:57;;;;;;;4.10;2.20;;;13.50;99.90;;;;;;5054654;28;20116;-69
2023/08/28 02:26:24;;;;;;;9.38;3.03;;;13.20;99.90;;;;;;5054607;28;20519;-70
2023/08/28 02:28:50;;;;;;;3.85;2.17;;;13.40;99.90;;;;;;5054700;28;20037;-70
2023/08/28 02:31:15;;;;;;;2.95;1.65;;;13.10;99.90;;;;;;5054985;28;20098;-70
2023/08/28 02:33:41;;;;;;;3.95;1.60;;;13.30;99.90;;;;;;5055940;28;20064;-69
2023/08/28 02:36:07;;;;;;;2.63;2.03;;;13.20;99.90;;;;;;5054747;28;20437;-69
2023/08/28 02:38:33;;;;;;;3.45;2.08;;;13.40;99.90;;;;;;5054496;28;20041;-69
2023/08/28 02:41:07;;;;;;;4.68;1.83;;;13.10;99.90;;;;;;5037035;28;20377;-69
2023/08/28 02:43:33;;;;;;;4.25;2.42;;;13.10;99.90;;;;;;5054799;28;20047;-69
2023/08/28 02:45:59;;;;;;;3.50;1.90;;;13.30;99.90;;;;;;5054518;28;20555;-70
2023/08/28 02:48:24;;;;;;;5.45;2.00;;;13.10;99.90;;;;;;5054183;28;20123;-69
2023/08/28 02:50:50;;;;;;;2.55;1.88;;;13.40;99.90;;;;;;5036560;28;20072;-70
2023/08/28 02:53:16;;;;;;;2.75;2.20;;;13.00;99.90;;;;;;5054532;28;20123;-69
2023/08/28 02:55:42;;;;;;;4.45;2.20;;;13.10;99.90;;;;;;5036085;28;20041;-69
2023/08/28 02:58:09;;;;;;;2.53;2.28;;;13.10;99.90;;;;;;5054363;28;20032;-69
2023/08/28 03:00:37;;;;;;;3.35;2.20;;;13.20;99.90;;;;;;5054498;28;20051;-69
2023/08/28 03:03:04;;;;;;;8.00;2.13;;;13.10;99.90;;;;;;5030694;28;20049;-70
2023/08/28 03:05:29;;;;;;;2.30;2.10;;;13.40;99.90;;;;;;5015271;28;20045;-70
2023/08/28 03:07:55;;;;;;;2.95;2.42;;;13.40;99.90;;;;;;5015683;28;20053;-70
2023/08/28 03:10:21;;;;;;;6.10;2.50;;;13.00;99.90;;;;;;5033832;28;20064;-69
2023/08/28 03:12:46;;;;;;;4.03;2.10;;;13.20;99.90;;;;;;5033159;28;20389;-69
2023/08/28 03:15:12;;;;;;;4.88;2.50;;;13.30;99.90;;;;;;5032503;28;20523;-69
2023/08/28 03:17:38;;;;;;;2.90;2.17;;;13.40;99.90;;;;;;5034137;28;20034;-69
2023/08/28 03:20:04;;;;;;;5.40;2.85;;;13.10;99.90;;;;;;5033806;28;20570;-70
2023/08/28 03:22:29;;;;;;;5.10;2.75;;;13.40;99.90;;;;;;5034009;28;20401;-70
2023/08/28 03:24:55;;;;;;;6.43;2.97;;;13.30;99.90;;;;;;5032358;28;20098;-70
2023/08/28 03:27:21;;;;;;;5.10;2.92;;;13.10;99.90;;;;;;5033817;28;20065;-69
2023/08/28 03:29:47;;;;;;;5.47;2.22;;;13.50;99.90;;;;;;5033629;28;20049;-70
2023/08/28 03:32:13;;;;;;;4.10;2.50;;;13.10;99.90;;;;;;5032799;28;20056;-70
2023/08/28 03:34:39;;;;;;;4.57;2.30;;;13.20;99.90;;;;;;5033395;28;20095;-70
2023/08/28 03:37:04;;;;;;;6.45;2.80;;;13.10;99.90;;;;;;5032382;28;20033;-70
2023/08/28 03:39:30;;;;;;;5.72;2.90;;;13.10;99.90;;;;;;5033411;28;20042;-70
2023/08/28 03:41:55;;;;;;;5.93;2.50;;;13.50;99.90;;;;;;5033645;28;20068;-70
2023/08/28 03:44:22;;;;;;;4.93;2.65;;;13.50;99.90;;;;;;5033393;28;20448;-70
2023/08/28 03:46:47;;;;;;;6.70;3.03;;;13.30;99.90;;;;;;5033227;28;20516;-70
2023/08/28 03:49:13;;;;;;;4.15;2.97;;;13.50;99.90;;;;;;5031826;28;20048;-70
2023/08/28 03:51:39;;;;;;;5.68;2.83;;;13.40;99.90;;;;;;5033510;28;20044;-70
2023/08/28 03:54:11;;;;;;;5.15;3.00;;;13.40;99.90;;;;;;5031618;28;20125;-69
2023/08/28 03:56:36;;;;;;;4.07;3.03;;;13.40;99.90;;;;;;5033235;28;20594;-69
2023/08/28 03:59:02;;;;;;;5.03;3.10;;;13.30;99.90;;;;;;5032018;28;20157;-69
2023/08/28 04:01:28;;;;;;;5.97;2.90;;;13.20;99.90;;;;;;5032170;28;20056;-70
2023/08/28 04:03:54;;;;;;;6.10;3.20;;;13.40;99.90;;;;;;5033175;28;20112;-70
2023/08/28 04:06:21;;;;;;;6.20;2.50;;;13.40;99.90;;;;;;5033127;28;20120;-70
2023/08/28 04:08:47;;;;;;;5.85;2.80;;;13.20;99.90;;;;;;5032909;28;20049;-70
2023/08/28 04:11:12;;;;;;;5.47;2.92;;;13.50;99.90;;;;;;5033328;28;20409;-69
2023/08/28 04:13:38;;;;;;;6.10;3.15;;;13.20;99.90;;;;;;5032844;28;20479;-70
2023/08/28 04:16:05;;;;;;;3.55;2.60;;;13.20;99.90;;;;;;5032534;28;20041;-69
2023/08/28 04:18:31;;;;;;;4.60;2.70;;;13.50;99.90;;;;;;5031727;28;20167;-70
2023/08/28 04:20:57;;;;;;;3.88;2.33;;;13.50;99.90;;;;;;5031881;28;20067;-70
2023/08/28 04:23:22;;;;;;;3.30;2.45;;;13.20;99.90;;;;;;5031788;28;20041;-69
2023/08/28 04:25:48;;;;;;;2.70;2.20;;;13.20;99.90;;;;;;5031244;28;20052;-70
2023/08/28 04:28:15;;;;;;;3.60;2.80;;;13.20;99.90;;;;;;5032526;28;20077;-70
2023/08/28 04:30:42;;;;;;;4.57;2.90;;;13.10;99.90;;;;;;5031403;28;20081;-70
2023/08/28 04:33:07;;;;;;;5.15;2.40;;;13.10;99.90;;;;;;5032730;28;20045;-70
2023/08/28 04:35:33;;;;;;;3.72;2.95;;;13.10;99.90;;;;;;5031098;28;20045;-69
2023/08/28 04:37:59;;;;;;;5.25;2.80;;;13.40;99.90;;;;;;5031257;28;20128;-69
2023/08/28 04:40:24;;;;;;;3.03;2.58;;;13.10;99.90;;;;;;5030876;28;20239;-70
2023/08/28 04:42:50;;;;;;;4.10;2.80;;;13.40;99.90;;;;;;5032593;28;20050;-70
2023/08/28 04:45:15;;;;;;;4.68;2.95;;;13.10;99.90;;;;;;5032336;28;20128;-70
2023/08/28 04:47:41;;;;;;;6.97;3.65;;;13.30;99.90;;;;;;5032220;28;20520;-70
2023/08/28 04:50:07;;;;;;;5.10;2.85;;;13.30;99.90;;;;;;5030866;28;20048;-70
2023/08/28 04:52:33;;;;;;;4.65;2.78;;;13.10;99.90;;;;;;5032559;28;20377;-70
2023/08/28 04:54:58;;;;;;;6.45;2.88;;;13.30;99.90;;;;;;5071658;22;20185;-73
2023/08/28 04:57:24;;;;;;;5.22;2.88;;;13.30;99.90;;;;;;5054061;28;20040;-72
2023/08/28 04:59:49;;;;;;;5.75;3.65;;;13.00;99.90;;;;;;5070928;28;20059;-73
2023/08/28 05:02:15;;;;;;;3.13;2.50;;;13.20;99.90;;;;;;5070886;28;20040;-73
2023/08/28 05:04:40;;;;;;;5.80;3.15;;;13.00;99.90;;;;;;5070603;28;20055;-73
2023/08/28 05:07:07;;;;;;;5.30;2.97;;;13.20;99.90;;;;;;5054171;28;20508;-72
2023/08/28 05:09:33;;;;;;;7.45;2.78;;;13.30;99.90;;;;;;5072041;28;20050;-71
2023/08/28 05:11:58;;;;;;;6.03;2.90;;;13.20;99.90;;;;;;5071961;28;20116;-73
2023/08/28 05:14:24;;;;;;;4.13;2.83;;;13.20;99.90;;;;;;5070682;28;20036;-72
2023/08/28 05:16:50;;;;;;;4.65;2.67;;;13.30;99.90;;;;;;5071693;28;20556;-72
2023/08/28 05:19:15;;;;;;;7.05;3.22;;;13.50;99.90;;;;;;5071571;28;20040;-72
2023/08/28 05:21:41;;;;;;;3.60;3.20;;;13.60;99.90;;;;;;5070587;28;20044;-72
2023/08/28 05:24:07;;;;;;;3.50;2.67;;;13.80;99.90;;;;;;5070370;28;20040;-72
2023/08/28 05:26:32;;;;;;;5.28;2.97;;;13.70;99.90;;;;;;5067959;28;20040;-72
2023/08/28 05:28:58;;;;;;;4.78;3.40;;;14.00;99.90;;;;;;5069190;28;20499;-72
2023/08/28 05:31:23;;;;;;;8.40;2.83;;;13.80;99.90;;;;;;5063109;28;20037;-72
2023/08/28 05:33:49;;;;;;;3.40;3.10;;;14.00;99.90;;;;;;5053922;28;20127;-72
2023/08/28 05:36:14;;;;;;;4.28;3.22;;;14.20;99.90;;;;;;5070262;28;20436;-72
2023/08/28 05:38:40;;;;;;;7.90;3.45;;;14.40;99.90;;;;;;5070412;28;20075;-72
2023/08/28 05:41:05;;;;;;;5.78;2.97;;;14.40;99.90;;;;;;5071689;28;20457;-73
2023/08/28 05:43:31;;;;;;;4.30;2.42;;;14.80;99.90;;;;;;5069648;28;20040;-72
2023/08/28 05:45:56;;;;;;;4.30;2.33;;;15.10;99.90;;;;;;5071314;28;20071;-70
2023/08/28 05:48:22;;;;;;;4.47;2.40;;;15.20;99.90;;;;;;5069925;28;20404;-73
2023/08/28 05:50:51;;;;;;;6.35;2.40;;;15.10;99.90;;;;;;5070331;28;20041;-74
2023/08/28 05:53:16;;;;;;;2.85;1.50;;;15.40;99.90;;;;;;5069960;28;20485;-75
2023/08/28 05:55:42;;;;;;;2.53;1.63;;;15.60;99.90;;;;;;5069957;28;20047;-76
2023/08/28 05:58:07;;;;;;;3.08;2.30;;;15.50;99.90;;;;;;5070063;28;20407;-75
2023/08/28 06:00:33;;;;;;;3.47;1.52;;;15.80;99.90;;;;;;5071239;28;20090;-76
2023/08/28 06:02:59;;;;;;;4.28;1.73;;;15.90;99.90;;;;;;5070022;28;20050;-75
2023/08/28 06:05:24;;;;;;;4.72;1.42;;;15.80;99.90;;;;;;5070222;28;20072;-76
2023/08/28 06:07:50;;;;;;;3.53;1.25;;;16.10;99.90;;;;;;5070025;28;20093;-75
2023/08/28 06:10:19;;;;;;;3.25;1.60;;;16.30;99.90;;;;;;5069909;28;20123;-75
2023/08/28 06:12:48;;;;;;;2.83;1.17;;;16.40;99.90;;;;;;5070106;28;20044;-76
2023/08/28 06:15:17;;;;;;;3.28;1.50;;;16.60;99.90;;;;;;5053117;28;20068;-76
2023/08/28 06:17:43;;;;;;;6.32;2.38;;;16.40;99.90;;;;;;5070046;28;20069;-76
2023/08/28 06:20:10;;;;;;;2.97;1.88;;;16.70;99.90;;;;;;5069803;28;20503;-76
2023/08/28 06:22:36;;;;;;;5.22;2.22;;;17.00;99.90;;;;;;5069925;28;20036;-76
2023/08/28 06:25:02;;;;;;;4.00;2.00;;;17.40;99.90;;;;;;5069671;28;20037;-76
2023/08/28 06:27:28;;;;;;;2.92;1.85;;;17.40;99.90;;;;;;5070006;28;20071;-76
2023/08/28 06:29:53;;;;;;;3.95;1.65;;;17.20;99.90;;;;;;5069530;28;20036;-76
2023/08/28 06:32:19;;;;;;;4.57;1.60;;;17.60;99.90;;;;;;5069800;28;20098;-76
2023/08/28 06:34:44;;;;;;;2.60;1.63;;;17.70;99.90;;;;;;5069667;28;20078;-73
2023/08/28 06:37:10;;;;;;;4.60;1.65;;;18.10;99.90;;;;;;5070127;28;20123;-73
2023/08/28 06:39:35;;;;;;;2.00;1.55;;;18.10;99.90;;;;;;5073230;28;20040;-74
2023/08/28 06:42:01;;;;;;;2.70;2.05;;;18.50;99.90;;;;;;5073397;28;20040;-73
2023/08/28 06:44:27;;;;;;;4.47;1.75;;;18.70;99.90;;;;;;5073196;28;20082;-74
2023/08/28 06:46:52;;;;;;;2.53;1.60;;;19.00;99.90;;;;;;5073209;28;20044;-74
2023/08/28 06:49:18;;;;;;;4.93;1.40;;;18.80;99.90;;;;;;5072928;28;20056;-74
2023/08/28 06:51:45;;;;;;;4.60;1.65;;;18.80;99.90;;;;;;5073272;28;20071;-73
2023/08/28 06:54:11;;;;;;;6.28;1.88;;;18.60;99.90;;;;;;5072994;28;20076;-73
2023/08/28 06:56:37;;;;;;;2.33;1.52;;;18.80;99.90;;;;;;5073374;28;20076;-73
2023/08/28 06:59:02;;;;;;;1.55;1.42;;;19.00;99.90;;;;;;5072763;28;20037;-73
2023/08/28 07:01:28;;;;;;;2.05;1.40;;;18.90;99.90;;;;;;5073240;28;20045;-73
2023/08/28 07:03:53;;;;;;;3.45;1.55;;;19.10;99.90;;;;;;5074369;28;20123;-73
2023/08/28 07:06:19;;;;;;;2.10;1.38;;;19.10;99.90;;;;;;5073237;28;20076;-73
2023/08/28 07:08:45;;;;;;;1.75;1.20;;;19.40;99.90;;;;;;5072614;28;20044;-73
2023/08/28 07:11:10;;;;;;;4.68;1.10;;;19.30;99.90;;;;;;5072980;28;20090;-73
2023/08/28 07:13:36;;;;;;;2.58;1.23;;;19.40;99.90;;;;;;5072812;28;20494;-73
2023/08/28 07:16:02;;;;;;;2.42;1.33;;;19.40;99.90;;;;;;5056233;28;20063;-74
2023/08/28 07:18:29;;;;;;;3.42;1.48;;;19.70;99.90;;;;;;5072515;28;20535;-74
2023/08/28 07:20:54;;;;;;;6.20;1.17;;;19.80;99.90;;;;;;5074204;28;20064;-73
2023/08/28 07:23:21;;;;;;;3.00;0.90;;;19.70;99.90;;;;;;5073997;28;20068;-74
2023/08/28 07:25:47;;;;;;;1.73;1.00;;;19.80;99.90;;;;;;5072530;28;20048;-74
2023/08/28 07:28:13;;;;;;;2.10;0.82;;;20.10;99.90;;;;;;5073510;28;20036;-76
2023/08/28 07:30:40;;;;;;;1.52;0.80;;;20.10;99.90;;;;;;5072364;28;20041;-75
2023/08/28 07:33:06;;;;;;;2.55;0.88;;;20.30;99.90;;;;;;5072825;28;20029;-73
2023/08/28 07:35:35;;;;;;;3.38;0.90;;;20.40;99.90;;;;;;5072611;28;20503;-72
2023/08/28 07:38:07;;;;;;;2.53;0.98;;;20.60;99.90;;;;;;5073650;28;20407;-73
2023/08/28 07:40:33;;;;;;;3.83;1.10;;;20.70;99.90;;;;;;5072170;28;20120;-73
2023/08/28 07:43:02;;;;;;;5.47;1.30;;;20.40;99.90;;;;;;5072447;28;20416;-73
2023/08/28 07:45:29;;;;;;;3.08;1.35;;;20.50;99.90;;;;;;5072122;28;20052;-74
2023/08/28 07:47:55;;;;;;;5.72;1.00;;;20.40;99.90;;;;;;5072219;28;20048;-75
2023/08/28 07:50:22;;;;;;;2.35;1.10;;;20.60;99.90;;;;;;5071186;28;20047;-73
2023/08/28 07:52:47;;;;;;;1.90;0.80;;;20.50;99.90;;;;;;5072002;28;20047;-73
2023/08/28 07:55:13;;;;;;;3.35;1.05;;;20.60;99.90;;;;;;5071868;28;20040;-73
2023/08/28 07:57:38;;;;;;;2.42;0.95;;;20.50;99.90;;;;;;5071789;28;20090;-73
2023/08/28 08:00:12;;;;;;;4.07;0.90;;;20.40;99.90;;;;;;5073176;28;20041;-73
2023/08/28 08:02:38;;;;;;;3.92;0.80;;;20.80;99.90;;;;;;5072196;28;20127;-73
2023/08/28 08:05:04;;;;;;;1.92;0.85;;;20.90;99.90;;;;;;5071800;28;20116;-73
2023/08/28 08:07:32;;;;;;;3.25;1.10;;;20.90;99.90;;;;;;5071609;28;20049;-73
2023/08/28 08:09:58;;;;;;;3.15;1.00;;;20.80;99.90;;;;;;5088385;28;20084;-73
2023/08/28 08:12:23;;;;;;;6.70;1.20;;;21.00;99.90;;;;;;5071951;28;20080;-73
2023/08/28 08:14:49;;;;;;;4.03;1.17;;;21.20;99.90;;;;;;5073085;28;20032;-73
2023/08/28 08:17:14;;;;;;;1.75;1.02;;;21.60;99.90;;;;;;5071529;28;20085;-73
2023/08/28 08:19:40;;;;;;;2.33;0.80;;;21.50;99.90;;;;;;5071312;28;20086;-73
2023/08/28 08:22:06;;;;;;;2.55;0.85;;;21.60;99.90;;;;;;5071485;28;20044;-73
2023/08/28 08:24:32;;;;;;;2.40;0.90;;;21.60;99.90;;;;;;5071347;28;20465;-73
2023/08/28 08:26:58;;;;;;;3.78;0.60;;;21.60;99.90;;;;;;5054961;28;20041;-73
2023/08/28 08:29:24;;;;;;;1.75;0.85;;;21.90;99.90;;;;;;5071009;28;20094;-73
2023/08/28 08:31:51;;;;;;;1.95;0.70;;;21.70;99.90;;;;;;5071309;28;20101;-73
2023/08/28 08:34:18;;;;;;;2.42;0.75;;;21.20;99.90;;;;;;5071229;28;20499;-73
2023/08/28 08:36:44;;;;;;;2.28;0.75;;;21.00;99.90;;;;;;5071259;28;20119;-73
2023/08/28 08:39:09;;;;;;;2.75;1.40;;;21.30;99.90;;;;;;5070948;28;20250;-74
2023/08/28 08:41:38;;;;;;;3.28;0.65;;;21.40;99.90;;;;;;5072691;28;20518;-74
2023/08/28 08:44:04;;;;;;;1.20;0.60;;;21.60;99.90;;;;;;5072480;28;20056;-73
2023/08/28 08:46:30;;;;;;;2.55;0.73;;;21.40;99.90;;;;;;5071339;28;20145;-73
2023/08/28 08:49:00;;;;;;;2.95;0.63;;;20.80;99.90;;;;;;5070750;28;20071;-73
2023/08/28 08:51:30;;;;;;;1.67;0.75;;;20.50;99.90;;;;;;5071035;28;20068;-73
2023/08/28 08:54:04;;;;;;;2.70;0.88;;;20.10;99.90;;;;;;5071001;28;20040;-73
2023/08/28 08:56:32;;;;;;;4.50;1.00;;;19.80;99.90;;;;;;5070812;28;20044;-74
2023/08/28 08:59:03;;;;;;;5.53;0.65;;;20.30;99.90;;;;;;5070472;28;20076;-74
2023/08/28 09:01:30;;;;;;;5.93;0.90;;;20.30;99.90;;;;;;5072048;28;20427;-73
2023/08/28 09:03:58;;;;;;;2.08;0.70;;;20.70;99.90;;;;;;5072061;28;20040;-73
2023/08/28 09:06:26;;;;;;;1.75;0.63;;;20.80;99.90;;;;;;5070877;28;20491;-73
2023/08/28 09:08:52;;;;;;;1.77;0.50;;;21.00;99.90;;;;;;5070348;28;20037;-73
2023/08/28 09:11:17;;;;;;;2.58;0.70;;;21.30;99.90;;;;;;5070654;28;20090;-73
2023/08/28 09:13:43;;;;;;;2.78;0.65;;;21.50;99.90;;;;;;5070632;28;20046;-74
2023/08/28 09:16:10;;;;;;;4.55;0.88;;;21.40;99.90;;;;;;5070529;28;20102;-74
2023/08/28 09:18:35;;;;;;;2.95;1.15;;;21.60;99.90;;;;;;5070238;28;20037;-74
2023/08/28 09:21:13;;;;;;;1.35;0.50;;;21.10;99.90;;;;;;5070760;28;20052;-74
2023/08/28 09:23:43;;;;;;;2.72;0.50;;;21.10;99.90;;;;;;5071710;28;20047;-74
2023/08/28 09:26:15;;;;;;;6.55;0.80;;;21.30;99.90;;;;;;5070330;28;20036;-75
2023/08/28 09:28:40;;;;;;;1.45;0.60;;;21.40;99.90;;;;;;5053441;28;20561;-74
2023/08/28 09:31:06;;;;;;;3.75;0.70;;;21.40;99.90;;;;;;5070670;28;20053;-74
2023/08/28 09:33:45;;;;;;;3.67;0.60;;;21.70;99.90;;;;;;5070706;28;20488;-74
2023/08/28 09:36:16;;;;;;;1.65;0.63;;;21.80;99.90;;;;;;5070279;28;20033;-74
2023/08/28 09:38:42;;;;;;;1.17;0.50;;;22.00;99.90;;;;;;5070298;28;20063;-74
2023/08/28 09:41:11;;;;;;;2.03;0.60;;;21.80;99.90;;;;;;5071630;28;20033;-75
2023/08/28 09:43:37;;;;;;;4.05;0.63;;;21.70;99.90;;;;;;5071519;28;20047;-74
2023/08/28 09:46:05;;;;;;;1.70;0.50;;;21.40;99.90;;;;;;5070076;28;20040;-73
2023/08/28 09:48:35;;;;;;;7.65;0.73;;;21.10;99.90;;;;;;5071451;28;20518;-74
2023/08/28 09:51:06;;;;;;;3.80;0.60;;;21.10;99.90;;;;;;5071539;28;20238;-74
2023/08/28 09:53:32;;;;;;;2.10;0.77;;;21.20;99.90;;;;;;5071509;28;20445;-74
2023/08/28 09:55:58;;;;;;;1.17;0.40;;;21.10;99.90;;;;;;5071200;28;20042;-74
2023/08/28 09:58:28;;;;;;;2.50;0.50;;;21.10;99.90;;;;;;5071069;28;20032;-74
2023/08/28 10:00:57;;;;;;;1.23;0.80;;;21.10;99.90;;;;;;5071574;28;20063;-74
2023/08/28 10:03:25;;;;;;;1.23;0.40;;;21.20;99.90;;;;;;5069594;28;20051;-74
2023/08/28 10:05:52;;;;;;;4.90;0.70;;;21.00;99.90;;;;;;5047642;28;20043;-74
2023/08/28 10:08:18;;;;;;;1.55;0.47;;;20.70;99.90;;;;;;5067285;28;20123;-74
2023/08/28 10:10:50;;;;;;;0.57;0.30;;;20.70;99.90;;;;;;5069832;28;20047;-74
2023/08/28 10:13:16;;;;;;;1.00;0.40;;;20.60;99.90;;;;;;5072165;28;20036;-74
2023/08/28 10:15:58;;;;;;;0.52;0.30;;;20.30;99.90;;;;;;5052830;28;20436;-74
2023/08/28 10:18:44;;;;;;;1.15;0.43;;;20.10;99.90;;;;;;5073269;28;20036;-74
2023/08/28 10:21:10;;;;;;;2.95;0.40;;;19.80;99.90;;;;;;5065799;28;20428;-74
2023/08/28 10:23:35;;;;;;;1.58;0.57;;;19.60;99.90;;;;;;5061947;28;20047;-74
2023/08/28 10:26:02;;;;;;;1.95;0.80;;;19.50;99.90;;;;;;5044021;28;20040;-74
2023/08/28 10:28:30;;;;;;;2.53;0.93;;;19.40;99.90;;;;;;5065080;28;20036;-74
2023/08/28 10:30:57;;;;;;;2.97;0.70;;;19.60;99.90;;;;;;5073592;28;20128;-74
2023/08/28 10:33:23;;;;;;;2.83;0.88;;;19.70;99.90;;;;;;5073550;28;20036;-73
2023/08/28 10:35:51;;;;;;;2.83;1.25;;;19.70;99.90;;;;;;5056677;28;20044;-73
2023/08/28 10:38:19;;;;;;;2.45;0.80;;;19.80;99.90;;;;;;5073237;28;20040;-73
2023/08/28 10:40:50;;;;;;;1.75;1.13;;;19.50;99.90;;;;;;5073451;28;20076;-73
2023/08/28 10:43:18;;;;;;;1.20;0.50;;;19.30;99.90;;;;;;5073707;28;20094;-69
2023/08/28 10:45:44;;;;;;;1.13;0.63;;;19.40;99.90;;;;;;5074448;28;20496;-69
2023/08/28 10:48:09;;;;;;;1.67;0.60;;;19.30;99.90;;;;;;5073871;28;20505;-69
2023/08/28 10:50:36;;;;;;;0.90;0.60;;;19.40;99.90;;;;;;5074423;28;20124;-68
2023/08/28 10:53:03;;;;;;;4.53;0.60;;;19.30;99.90;;;;;;5074799;28;20071;-69
2023/08/28 10:55:29;;;;;;;1.67;0.35;;;19.30;99.90;;;;;;5095155;22;20083;-67
2023/08/28 10:57:54;;;;;;;3.58;0.63;;;19.30;99.90;;;;;;5063851;28;20503;-67
2023/08/28 11:00:22;;;;;;;2.30;0.70;;;19.30;99.90;;;;;;5066694;28;20036;-67
2023/08/28 11:03:03;;;;;;;1.23;0.63;;;19.20;99.90;;;;;;5062154;28;20116;-68
2023/08/28 11:05:29;;;;;;;2.13;0.77;;;19.20;99.90;;;;;;5068910;28;20040;-67
2023/08/28 11:07:56;;;;;;;1.98;0.50;;;19.30;99.90;;;;;;5073979;28;20495;-67
2023/08/28 11:10:25;;;;;;;1.17;0.40;;;19.30;99.90;;;;;;5073992;28;20040;-67
2023/08/28 11:12:53;;;;;;;2.97;0.68;;;19.40;99.90;;;;;;5074238;28;20098;-67
2023/08/28 11:15:38;;;;;;;1.30;0.80;;;19.30;99.90;;;;;;5072610;28;20033;-67
2023/08/28 11:18:27;;;;;;;3.28;0.70;;;19.30;99.90;;;;;;5074006;28;20043;-67
2023/08/28 11:20:54;;;;;;;0.82;0.50;;;19.40;99.90;;;;;;5074101;28;20111;-67
2023/08/28 11:23:33;;;;;;;1.48;0.50;;;19.50;99.90;;;;;;5073412;28;20095;-67
2023/08/28 11:26:06;;;;;;;4.47;0.73;;;19.30;99.90;;;;;;5073660;28;20109;-67
2023/08/28 11:28:45;;;;;;;1.38;0.60;;;19.50;99.90;;;;;;5073825;28;20119;-67
2023/08/28 11:31:12;;;;;;;3.67;0.80;;;19.40;99.90;;;;;;5073997;28;20095;-67
2023/08/28 11:33:46;;;;;;;1.40;0.60;;;19.40;99.90;;;;;;5073894;28;20036;-67
2023/08/28 11:36:19;;;;;;;3.17;0.85;;;19.40;99.90;;;;;;5073640;28;20377;-67
2023/08/28 11:38:49;;;;;;;1.42;0.70;;;19.50;99.90;;;;;;5073173;28;20028;-67
2023/08/28 11:41:15;;;;;;;1.40;0.52;;;19.60;99.90;;;;;;5073374;28;20076;-67
2023/08/28 11:43:42;;;;;;;3.03;0.88;;;19.60;99.90;;;;;;5073199;28;20056;-67
2023/08/28 11:46:09;;;;;;;1.38;0.60;;;19.60;99.90;;;;;;5073452;28;20086;-67
2023/08/28 11:48:37;;;;;;;1.48;0.40;;;19.50;99.90;;;;;;5073215;28;20115;-67
2023/08/28 11:51:04;;;;;;;1.30;0.50;;;19.60;99.90;;;;;;5073342;28;20087;-67
2023/08/28 11:53:41;;;;;;;2.45;0.60;;;19.60;99.90;;;;;;5073370;28;20040;-68
2023/08/28 11:56:10;;;;;;;1.73;0.60;;;19.60;99.90;;;;;;5073272;28;20033;-68
2023/08/28 11:58:38;;;;;;;2.70;0.63;;;19.60;99.90;;;;;;5070229;28;20048;-67
2023/08/28 12:01:07;;;;;;;1.98;0.55;;;19.70;99.90;;;;;;5061353;28;20508;-67
2023/08/28 12:03:36;;;;;;;2.35;0.70;;;20.00;99.90;;;;;;5072473;28;20083;-68
2023/08/28 12:06:09;;;;;;;1.50;0.50;;;20.20;99.90;;;;;;5073139;28;20046;-68
2023/08/28 12:08:37;;;;;;;4.88;0.55;;;20.40;99.90;;;;;;5064547;28;20040;-68
2023/08/28 12:11:06;;;;;;;2.03;0.70;;;20.30;99.90;;;;;;5071699;28;20051;-68
2023/08/28 12:13:32;;;;;;;2.30;0.50;;;20.00;99.90;;;;;;5072792;28;20039;-68
2023/08/28 12:16:17;;;;;;;1.33;0.70;;;19.90;99.90;;;;;;5073095;28;20080;-68
2023/08/28 12:18:53;;;;;;;1.83;0.70;;;20.00;99.90;;;;;;5072497;28;20037;-68
2023/08/28 12:21:33;;;;;;;1.33;0.60;;;20.00;99.90;;;;;;5073008;28;20032;-68
2023/08/28 12:23:58;;;;;;;4.40;0.60;;;19.90;99.90;;;;;;5072858;28;20561;-68
2023/08/28 12:26:25;;;;;;;2.00;0.60;;;20.20;99.90;;;;;;5072782;28;20041;-68
2023/08/28 12:28:51;;;;;;;3.38;0.88;;;20.10;99.90;;;;;;5072569;28;20048;-69
2023/08/28 12:31:27;;;;;;;0.93;0.60;;;20.10;99.90;;;;;;5072792;28;20048;-68
2023/08/28 12:33:53;;;;;;;3.15;0.50;;;20.00;99.90;;;;;;5072863;28;20487;-69
2023/08/28 12:36:19;;;;;;;3.75;1.00;;;19.90;99.90;;;;;;5072950;28;20040;-68
2023/08/28 12:38:49;;;;;;;1.10;0.40;;;20.00;99.90;;;;;;5072746;28;20488;-68
2023/08/28 12:41:16;;;;;;;2.55;0.80;;;19.90;99.90;;;;;;5072978;28;20052;-68
2023/08/28 12:43:43;;;;;;;1.90;0.60;;;19.90;99.90;;;;;;5065290;28;20050;-69
2023/08/28 12:46:09;;;;;;;1.70;0.68;;;20.00;99.90;;;;;;5072628;28;20040;-69
2023/08/28 12:48:34;;;;;;;2.75;0.50;;;19.90;99.90;;;;;;5071846;28;20044;-68